sensor_id;sensor_type;location;lat;lon;timestamp;temperature;humidity
51661;DHT22;37741;49.748;8.490;2022-10-16T00:01:12;16.10;91.90
51661;DHT22;37741;49.748;8.490;2022-10-16T00:03:39;16.00;91.70
51661;DHT22;37741;49.748;8.490;2022-10-16T00:06:05;16.00;91.80
51661;DHT22;37741;49.748;8.490;2022-10-16T00:08:31;16.00;91.70
51661;DHT22;37741;49.748;8.490;2022-10-16T00:11:12;16.00;91.80
51661;DHT22;37741;49.748;8.490;2022-10-16T00:13:40;16.00;91.80
51661;DHT22;37741;49.748;8.490;2022-10-16T00:16:06;16.00;91.90
51661;DHT22;37741;49.748;8.490;2022-10-16T00:18:33;16.00;91.80
51661;DHT22;37741;49.748;8.490;2022-10-16T00:21:04;16.00;91.50
51661;DHT22;37741;49.748;8.490;2022-10-16T00:23:30;16.00;91.40
51661;DHT22;37741;49.748;8.490;2022-10-16T00:26:02;16.00;91.30
51661;DHT22;37741;49.748;8.490;2022-10-16T00:28:28;16.00;91.40
51661;DHT22;37741;49.748;8.490;2022-10-16T00:30:54;16.00;91.40
51661;DHT22;37741;49.748;8.490;2022-10-16T00:33:20;16.00;91.40
51661;DHT22;37741;49.748;8.490;2022-10-16T00:35:46;16.00;91.30
51661;DHT22;37741;49.748;8.490;2022-10-16T00:38:12;16.00;91.40
51661;DHT22;37741;49.748;8.490;2022-10-16T00:40:38;16.00;91.40
51661;DHT22;37741;49.748;8.490;2022-10-16T00:43:52;16.00;91.40
51661;DHT22;37741;49.748;8.490;2022-10-16T00:45:58;16.00;91.30
51661;DHT22;37741;49.748;8.490;2022-10-16T00:48:24;16.00;91.30
51661;DHT22;37741;49.748;8.490;2022-10-16T00:50:49;15.90;91.20
51661;DHT22;37741;49.748;8.490;2022-10-16T00:53:16;16.00;91.20
51661;DHT22;37741;49.748;8.490;2022-10-16T00:55:42;15.90;91.20
51661;DHT22;37741;49.748;8.490;2022-10-16T00:58:08;15.90;91.20
51661;DHT22;37741;49.748;8.490;2022-10-16T01:00:35;15.90;91.10
51661;DHT22;37741;49.748;8.490;2022-10-16T01:03:01;15.90;91.10
51661;DHT22;37741;49.748;8.490;2022-10-16T01:05:34;16.00;91.10
51661;DHT22;37741;49.748;8.490;2022-10-16T01:08:18;16.00;91.20
51661;DHT22;37741;49.748;8.490;2022-10-16T01:13:23;15.90;91.10
51661;DHT22;37741;49.748;8.490;2022-10-16T01:15:54;16.00;91.20
51661;DHT22;37741;49.748;8.490;2022-10-16T01:24:07;15.90;91.50
51661;DHT22;37741;49.748;8.490;2022-10-16T01:29:26;15.90;91.40
51661;DHT22;37741;49.748;8.490;2022-10-16T01:31:59;15.90;91.50
51661;DHT22;37741;49.748;8.490;2022-10-16T01:34:33;15.90;91.40
51661;DHT22;37741;49.748;8.490;2022-10-16T01:37:14;15.90;91.40
51661;DHT22;37741;49.748;8.490;2022-10-16T01:39:42;15.90;91.40
51661;DHT22;37741;49.748;8.490;2022-10-16T01:42:16;15.90;91.50
51661;DHT22;37741;49.748;8.490;2022-10-16T01:44:45;15.90;91.50
51661;DHT22;37741;49.748;8.490;2022-10-16T01:47:13;15.90;91.90
51661;DHT22;37741;49.748;8.490;2022-10-16T01:49:40;15.90;91.40
51661;DHT22;37741;49.748;8.490;2022-10-16T01:52:14;15.90;91.60
51661;DHT22;37741;49.748;8.490;2022-10-16T01:54:43;15.90;91.60
51661;DHT22;37741;49.748;8.490;2022-10-16T01:57:12;15.90;92.00
51661;DHT22;37741;49.748;8.490;2022-10-16T01:59:43;15.90;91.70
51661;DHT22;37741;49.748;8.490;2022-10-16T02:02:10;15.90;91.90
51661;DHT22;37741;49.748;8.490;2022-10-16T02:04:46;15.90;91.70
51661;DHT22;37741;49.748;8.490;2022-10-16T02:07:13;15.90;92.00
51661;DHT22;37741;49.748;8.490;2022-10-16T02:09:39;15.90;91.60
51661;DHT22;37741;49.748;8.490;2022-10-16T02:12:15;15.90;91.70
51661;DHT22;37741;49.748;8.490;2022-10-16T02:14:42;15.90;91.70
51661;DHT22;37741;49.748;8.490;2022-10-16T02:17:13;15.90;91.90
51661;DHT22;37741;49.748;8.490;2022-10-16T02:19:39;15.90;91.80
51661;DHT22;37741;49.748;8.490;2022-10-16T02:22:08;15.80;91.70
51661;DHT22;37741;49.748;8.490;2022-10-16T02:24:54;15.80;91.80
51661;DHT22;37741;49.748;8.490;2022-10-16T02:33:11;15.90;92.00
51661;DHT22;37741;49.748;8.490;2022-10-16T02:35:40;15.80;91.90
51661;DHT22;37741;49.748;8.490;2022-10-16T02:38:08;15.90;91.80
51661;DHT22;37741;49.748;8.490;2022-10-16T02:40:35;15.80;91.70
51661;DHT22;37741;49.748;8.490;2022-10-16T02:43:03;15.80;91.80
51661;DHT22;37741;49.748;8.490;2022-10-16T02:45:30;15.80;92.00
51661;DHT22;37741;49.748;8.490;2022-10-16T02:47:55;15.90;91.90
51661;DHT22;37741;49.748;8.490;2022-10-16T02:50:21;15.90;92.20
51661;DHT22;37741;49.748;8.490;2022-10-16T02:52:47;15.90;92.30
51661;DHT22;37741;49.748;8.490;2022-10-16T02:55:13;15.80;92.20
51661;DHT22;37741;49.748;8.490;2022-10-16T02:57:38;15.90;92.30
51661;DHT22;37741;49.748;8.490;2022-10-16T03:00:06;15.90;92.60
51661;DHT22;37741;49.748;8.490;2022-10-16T03:02:32;15.80;92.50
51661;DHT22;37741;49.748;8.490;2022-10-16T03:04:58;15.90;92.50
51661;DHT22;37741;49.748;8.490;2022-10-16T03:07:23;15.80;92.30
51661;DHT22;37741;49.748;8.490;2022-10-16T03:09:49;15.80;92.00
51661;DHT22;37741;49.748;8.490;2022-10-16T03:12:14;15.80;92.30
51661;DHT22;37741;49.748;8.490;2022-10-16T03:14:40;15.80;92.40
51661;DHT22;37741;49.748;8.490;2022-10-16T03:17:06;15.80;92.30
51661;DHT22;37741;49.748;8.490;2022-10-16T03:19:31;15.80;91.90
51661;DHT22;37741;49.748;8.490;2022-10-16T03:21:57;15.80;91.50
51661;DHT22;37741;49.748;8.490;2022-10-16T03:24:23;15.80;91.70
51661;DHT22;37741;49.748;8.490;2022-10-16T03:26:48;15.80;92.30
51661;DHT22;37741;49.748;8.490;2022-10-16T03:29:14;15.80;91.40
51661;DHT22;37741;49.748;8.490;2022-10-16T03:31:40;15.80;91.10
51661;DHT22;37741;49.748;8.490;2022-10-16T03:34:05;15.80;91.70
51661;DHT22;37741;49.748;8.490;2022-10-16T03:36:31;15.80;91.10
51661;DHT22;37741;49.748;8.490;2022-10-16T03:38:56;15.80;91.00
51661;DHT22;37741;49.748;8.490;2022-10-16T03:41:22;15.80;91.20
51661;DHT22;37741;49.748;8.490;2022-10-16T03:43:48;15.80;92.10
51661;DHT22;37741;49.748;8.490;2022-10-16T03:46:13;15.80;91.40
51661;DHT22;37741;49.748;8.490;2022-10-16T03:48:39;15.80;91.80
51661;DHT22;37741;49.748;8.490;2022-10-16T03:51:05;15.80;91.50
51661;DHT22;37741;49.748;8.490;2022-10-16T03:53:31;15.80;91.50
51661;DHT22;37741;49.748;8.490;2022-10-16T03:55:57;15.80;91.60
51661;DHT22;37741;49.748;8.490;2022-10-16T03:58:22;15.70;92.10
51661;DHT22;37741;49.748;8.490;2022-10-16T04:00:48;15.80;92.10
51661;DHT22;37741;49.748;8.490;2022-10-16T04:03:14;15.80;91.70
51661;DHT22;37741;49.748;8.490;2022-10-16T04:05:40;15.80;91.40
51661;DHT22;37741;49.748;8.490;2022-10-16T04:08:06;15.80;91.00
51661;DHT22;37741;49.748;8.490;2022-10-16T04:10:31;15.80;91.20
51661;DHT22;37741;49.748;8.490;2022-10-16T04:12:57;15.70;91.10
51661;DHT22;37741;49.748;8.490;2022-10-16T04:15:24;15.70;90.90
51661;DHT22;37741;49.748;8.490;2022-10-16T04:17:49;15.80;91.10
51661;DHT22;37741;49.748;8.490;2022-10-16T04:20:15;15.70;91.70
51661;DHT22;37741;49.748;8.490;2022-10-16T04:22:41;15.70;91.70
51661;DHT22;37741;49.748;8.490;2022-10-16T04:25:06;15.80;92.00
51661;DHT22;37741;49.748;8.490;2022-10-16T04:27:32;15.80;91.80
51661;DHT22;37741;49.748;8.490;2022-10-16T04:29:59;15.80;91.30
51661;DHT22;37741;49.748;8.490;2022-10-16T04:32:25;15.70;91.30
51661;DHT22;37741;49.748;8.490;2022-10-16T04:34:51;15.70;91.40
51661;DHT22;37741;49.748;8.490;2022-10-16T04:37:16;15.80;91.70
51661;DHT22;37741;49.748;8.490;2022-10-16T04:39:42;15.70;91.50
51661;DHT22;37741;49.748;8.490;2022-10-16T04:42:08;15.70;91.20
51661;DHT22;37741;49.748;8.490;2022-10-16T04:44:33;15.80;91.00
51661;DHT22;37741;49.748;8.490;2022-10-16T04:46:59;15.80;91.40
51661;DHT22;37741;49.748;8.490;2022-10-16T04:49:24;15.70;91.10
51661;DHT22;37741;49.748;8.490;2022-10-16T04:51:50;15.70;90.90
51661;DHT22;37741;49.748;8.490;2022-10-16T04:54:16;15.70;90.70
51661;DHT22;37741;49.748;8.490;2022-10-16T04:56:41;15.70;91.30
51661;DHT22;37741;49.748;8.490;2022-10-16T04:59:14;15.70;91.40
51661;DHT22;37741;49.748;8.490;2022-10-16T05:01:40;15.70;90.70
51661;DHT22;37741;49.748;8.490;2022-10-16T05:04:05;15.70;90.60
51661;DHT22;37741;49.748;8.490;2022-10-16T05:06:31;15.70;90.60
51661;DHT22;37741;49.748;8.490;2022-10-16T05:08:57;15.70;91.50
51661;DHT22;37741;49.748;8.490;2022-10-16T05:11:22;15.70;91.00
51661;DHT22;37741;49.748;8.490;2022-10-16T05:13:48;15.70;91.40
51661;DHT22;37741;49.748;8.490;2022-10-16T05:16:14;15.70;91.40
51661;DHT22;37741;49.748;8.490;2022-10-16T05:18:40;15.70;91.30
51661;DHT22;37741;49.748;8.490;2022-10-16T05:21:05;15.70;91.70
51661;DHT22;37741;49.748;8.490;2022-10-16T05:23:31;15.70;91.40
51661;DHT22;37741;49.748;8.490;2022-10-16T05:25:58;15.70;91.50
51661;DHT22;37741;49.748;8.490;2022-10-16T05:28:26;15.70;91.50
51661;DHT22;37741;49.748;8.490;2022-10-16T05:30:52;15.70;91.10
51661;DHT22;37741;49.748;8.490;2022-10-16T05:33:20;15.70;90.90
51661;DHT22;37741;49.748;8.490;2022-10-16T05:35:46;15.70;90.80
51661;DHT22;37741;49.748;8.490;2022-10-16T05:38:12;15.70;90.80
51661;DHT22;37741;49.748;8.490;2022-10-16T05:40:37;15.70;90.70
51661;DHT22;37741;49.748;8.490;2022-10-16T05:43:03;15.60;90.80
51661;DHT22;37741;49.748;8.490;2022-10-16T05:45:29;15.70;90.70
51661;DHT22;37741;49.748;8.490;2022-10-16T05:47:54;15.70;90.60
51661;DHT22;37741;49.748;8.490;2022-10-16T05:50:20;15.70;90.70
51661;DHT22;37741;49.748;8.490;2022-10-16T05:52:46;15.60;90.60
51661;DHT22;37741;49.748;8.490;2022-10-16T05:55:11;15.70;91.10
51661;DHT22;37741;49.748;8.490;2022-10-16T05:57:37;15.60;91.30
51661;DHT22;37741;49.748;8.490;2022-10-16T06:00:04;15.60;91.20
51661;DHT22;37741;49.748;8.490;2022-10-16T06:02:29;15.70;91.00
51661;DHT22;37741;49.748;8.490;2022-10-16T06:04:55;15.60;90.70
51661;DHT22;37741;49.748;8.490;2022-10-16T06:07:21;15.70;90.60
51661;DHT22;37741;49.748;8.490;2022-10-16T06:09:51;15.60;90.80
51661;DHT22;37741;49.748;8.490;2022-10-16T06:12:18;15.60;90.80
51661;DHT22;37741;49.748;8.490;2022-10-16T06:14:44;15.60;90.80
51661;DHT22;37741;49.748;8.490;2022-10-16T06:17:12;15.60;91.10
51661;DHT22;37741;49.748;8.490;2022-10-16T06:19:38;15.60;91.20
51661;DHT22;37741;49.748;8.490;2022-10-16T06:22:04;15.60;91.40
51661;DHT22;37741;49.748;8.490;2022-10-16T06:24:29;15.60;90.80
51661;DHT22;37741;49.748;8.490;2022-10-16T06:26:55;15.60;91.10
51661;DHT22;37741;49.748;8.490;2022-10-16T06:29:21;15.60;91.00
51661;DHT22;37741;49.748;8.490;2022-10-16T06:31:46;15.60;90.90
51661;DHT22;37741;49.748;8.490;2022-10-16T06:34:12;15.60;90.80
51661;DHT22;37741;49.748;8.490;2022-10-16T06:36:38;15.60;91.20
51661;DHT22;37741;49.748;8.490;2022-10-16T06:39:05;15.60;90.90
51661;DHT22;37741;49.748;8.490;2022-10-16T06:41:33;15.60;91.00
51661;DHT22;37741;49.748;8.490;2022-10-16T06:43:59;15.60;91.40
51661;DHT22;37741;49.748;8.490;2022-10-16T06:46:25;15.60;91.30
51661;DHT22;37741;49.748;8.490;2022-10-16T06:48:52;15.60;91.10
51661;DHT22;37741;49.748;8.490;2022-10-16T06:51:20;15.60;91.70
51661;DHT22;37741;49.748;8.490;2022-10-16T06:53:48;15.60;91.40
51661;DHT22;37741;49.748;8.490;2022-10-16T06:56:30;15.60;91.80
51661;DHT22;37741;49.748;8.490;2022-10-16T06:58:56;15.60;91.90
51661;DHT22;37741;49.748;8.490;2022-10-16T07:01:23;15.60;92.10
51661;DHT22;37741;49.748;8.490;2022-10-16T07:03:49;15.60;91.70
51661;DHT22;37741;49.748;8.490;2022-10-16T07:06:17;15.60;91.90
51661;DHT22;37741;49.748;8.490;2022-10-16T07:08:45;15.60;92.10
51661;DHT22;37741;49.748;8.490;2022-10-16T07:11:13;15.60;92.30
51661;DHT22;37741;49.748;8.490;2022-10-16T07:13:43;15.60;92.20
51661;DHT22;37741;49.748;8.490;2022-10-16T07:16:10;15.60;92.50
51661;DHT22;37741;49.748;8.490;2022-10-16T07:18:36;15.60;92.40
51661;DHT22;37741;49.748;8.490;2022-10-16T07:21:18;15.60;92.50
51661;DHT22;37741;49.748;8.490;2022-10-16T07:23:49;15.60;92.70
51661;DHT22;37741;49.748;8.490;2022-10-16T07:26:15;15.60;92.80
51661;DHT22;37741;49.748;8.490;2022-10-16T07:28:42;15.60;92.70
51661;DHT22;37741;49.748;8.490;2022-10-16T07:31:12;15.60;92.80
51661;DHT22;37741;49.748;8.490;2022-10-16T07:33:39;15.60;92.60
51661;DHT22;37741;49.748;8.490;2022-10-16T07:36:05;15.60;92.50
51661;DHT22;37741;49.748;8.490;2022-10-16T07:38:31;15.60;92.70
51661;DHT22;37741;49.748;8.490;2022-10-16T07:40:58;15.60;91.90
51661;DHT22;37741;49.748;8.490;2022-10-16T07:43:25;15.60;92.60
51661;DHT22;37741;49.748;8.490;2022-10-16T07:45:52;15.60;92.40
51661;DHT22;37741;49.748;8.490;2022-10-16T07:48:18;15.60;91.90
51661;DHT22;37741;49.748;8.490;2022-10-16T07:50:44;15.60;92.20
51661;DHT22;37741;49.748;8.490;2022-10-16T07:53:10;15.70;92.90
51661;DHT22;37741;49.748;8.490;2022-10-16T07:55:36;15.60;92.50
51661;DHT22;37741;49.748;8.490;2022-10-16T07:58:02;15.70;92.50
51661;DHT22;37741;49.748;8.490;2022-10-16T08:00:28;15.70;92.70
51661;DHT22;37741;49.748;8.490;2022-10-16T08:02:54;15.70;92.80
51661;DHT22;37741;49.748;8.490;2022-10-16T08:05:19;15.70;92.70
51661;DHT22;37741;49.748;8.490;2022-10-16T08:07:49;15.70;92.60
51661;DHT22;37741;49.748;8.490;2022-10-16T08:10:17;15.60;92.60
51661;DHT22;37741;49.748;8.490;2022-10-16T08:12:43;15.70;92.50
51661;DHT22;37741;49.748;8.490;2022-10-16T08:15:09;15.70;92.40
51661;DHT22;37741;49.748;8.490;2022-10-16T08:17:35;15.70;92.50
51661;DHT22;37741;49.748;8.490;2022-10-16T08:20:01;15.70;92.60
51661;DHT22;37741;49.748;8.490;2022-10-16T08:22:27;15.70;92.40
51661;DHT22;37741;49.748;8.490;2022-10-16T08:24:52;15.70;92.50
51661;DHT22;37741;49.748;8.490;2022-10-16T08:27:18;15.70;92.60
51661;DHT22;37741;49.748;8.490;2022-10-16T08:29:44;15.70;92.40
51661;DHT22;37741;49.748;8.490;2022-10-16T08:32:09;15.70;93.10
51661;DHT22;37741;49.748;8.490;2022-10-16T08:34:35;15.80;93.10
51661;DHT22;37741;49.748;8.490;2022-10-16T08:37:00;15.70;92.80
51661;DHT22;37741;49.748;8.490;2022-10-16T08:39:26;15.70;92.70
51661;DHT22;37741;49.748;8.490;2022-10-16T08:41:59;15.70;92.00
51661;DHT22;37741;49.748;8.490;2022-10-16T08:45:00;15.80;92.60
51661;DHT22;37741;49.748;8.490;2022-10-16T08:50:13;15.70;92.50
51661;DHT22;37741;49.748;8.490;2022-10-16T08:52:42;15.70;92.80
51661;DHT22;37741;49.748;8.490;2022-10-16T08:55:23;15.70;92.30
51661;DHT22;37741;49.748;8.490;2022-10-16T08:57:52;15.80;92.20
51661;DHT22;37741;49.748;8.490;2022-10-16T09:00:18;15.70;92.80
51661;DHT22;37741;49.748;8.490;2022-10-16T09:02:59;15.80;92.50
51661;DHT22;37741;49.748;8.490;2022-10-16T09:08:14;15.80;92.90
51661;DHT22;37741;49.748;8.490;2022-10-16T09:13:47;15.80;92.90
51661;DHT22;37741;49.748;8.490;2022-10-16T09:16:22;15.80;93.20
51661;DHT22;37741;49.748;8.490;2022-10-16T09:19:09;15.80;93.00
51661;DHT22;37741;49.748;8.490;2022-10-16T09:21:41;15.80;92.20
51661;DHT22;37741;49.748;8.490;2022-10-16T09:24:13;15.80;92.90
51661;DHT22;37741;49.748;8.490;2022-10-16T09:26:39;15.80;92.00
51661;DHT22;37741;49.748;8.490;2022-10-16T09:29:05;15.90;92.20
51661;DHT22;37741;49.748;8.490;2022-10-16T09:31:30;15.90;91.80
51661;DHT22;37741;49.748;8.490;2022-10-16T09:34:00;15.90;92.60
51661;DHT22;37741;49.748;8.490;2022-10-16T09:36:41;15.90;91.90
51661;DHT22;37741;49.748;8.490;2022-10-16T09:39:09;15.90;92.10
51661;DHT22;37741;49.748;8.490;2022-10-16T09:41:37;15.90;92.20
51661;DHT22;37741;49.748;8.490;2022-10-16T09:44:40;16.00;92.60
51661;DHT22;37741;49.748;8.490;2022-10-16T09:47:14;16.00;92.10
51661;DHT22;37741;49.748;8.490;2022-10-16T09:50:00;16.00;92.30
51661;DHT22;37741;49.748;8.490;2022-10-16T09:52:31;16.00;93.10
51661;DHT22;37741;49.748;8.490;2022-10-16T09:55:00;16.10;93.00
51661;DHT22;37741;49.748;8.490;2022-10-16T09:57:26;16.10;93.00
51661;DHT22;37741;49.748;8.490;2022-10-16T09:59:54;16.10;92.90
51661;DHT22;37741;49.748;8.490;2022-10-16T10:02:31;16.20;92.90
51661;DHT22;37741;49.748;8.490;2022-10-16T10:04:59;16.20;93.10
51661;DHT22;37741;49.748;8.490;2022-10-16T10:07:26;16.20;93.30
51661;DHT22;37741;49.748;8.490;2022-10-16T10:09:54;16.30;93.20
51661;DHT22;37741;49.748;8.490;2022-10-16T10:12:29;16.30;93.20
51661;DHT22;37741;49.748;8.490;2022-10-16T10:14:58;16.30;93.20
51661;DHT22;37741;49.748;8.490;2022-10-16T10:17:28;16.30;93.80
51661;DHT22;37741;49.748;8.490;2022-10-16T10:19:59;16.40;93.80
51661;DHT22;37741;49.748;8.490;2022-10-16T10:22:44;16.40;93.10
51661;DHT22;37741;49.748;8.490;2022-10-16T10:33:15;16.50;92.90
51661;DHT22;37741;49.748;8.490;2022-10-16T10:35:58;16.50;92.70
51661;DHT22;37741;49.748;8.490;2022-10-16T10:38:49;16.60;93.10
51661;DHT22;37741;49.748;8.490;2022-10-16T10:44:22;16.60;92.90
51661;DHT22;37741;49.748;8.490;2022-10-16T11:00:14;16.80;93.50
51661;DHT22;37741;49.748;8.490;2022-10-16T11:08:36;16.90;93.30
51661;DHT22;37741;49.748;8.490;2022-10-16T11:11:17;16.90;93.20
51661;DHT22;37741;49.748;8.490;2022-10-16T11:14:26;16.90;93.10
51661;DHT22;37741;49.748;8.490;2022-10-16T11:17:13;17.00;92.90
51661;DHT22;37741;49.748;8.490;2022-10-16T11:19:55;17.00;93.10
51661;DHT22;37741;49.748;8.490;2022-10-16T11:22:37;17.00;93.20
51661;DHT22;37741;49.748;8.490;2022-10-16T11:25:13;17.00;92.80
51661;DHT22;37741;49.748;8.490;2022-10-16T11:28:08;17.10;93.10
51661;DHT22;37741;49.748;8.490;2022-10-16T11:30:47;17.10;93.00
51661;DHT22;37741;49.748;8.490;2022-10-16T11:36:14;17.20;92.80
51661;DHT22;37741;49.748;8.490;2022-10-16T11:38:57;17.20;92.80
51661;DHT22;37741;49.748;8.490;2022-10-16T11:41:35;17.30;92.40
51661;DHT22;37741;49.748;8.490;2022-10-16T11:46:46;17.30;92.80
51661;DHT22;37741;49.748;8.490;2022-10-16T11:49:16;17.40;92.40
51661;DHT22;37741;49.748;8.490;2022-10-16T11:51:50;17.40;92.40
51661;DHT22;37741;49.748;8.490;2022-10-16T11:57:32;17.40;92.50
51661;DHT22;37741;49.748;8.490;2022-10-16T12:08:18;17.60;92.20
51661;DHT22;37741;49.748;8.490;2022-10-16T12:10:46;17.60;92.20
51661;DHT22;37741;49.748;8.490;2022-10-16T12:13:32;17.60;91.90
51661;DHT22;37741;49.748;8.490;2022-10-16T12:18:44;17.70;92.00
51661;DHT22;37741;49.748;8.490;2022-10-16T12:21:11;17.80;91.70
51661;DHT22;37741;49.748;8.490;2022-10-16T12:23:52;17.80;92.10
51661;DHT22;37741;49.748;8.490;2022-10-16T12:26:38;17.80;92.40
51661;DHT22;37741;49.748;8.490;2022-10-16T12:31:47;17.90;92.00
51661;DHT22;37741;49.748;8.490;2022-10-16T12:34:44;17.90;92.10
51661;DHT22;37741;49.748;8.490;2022-10-16T12:39:35;18.10;92.50
51661;DHT22;37741;49.748;8.490;2022-10-16T12:42:23;18.20;92.80
51661;DHT22;37741;49.748;8.490;2022-10-16T12:44:49;18.30;92.60
51661;DHT22;37741;49.748;8.490;2022-10-16T12:47:38;18.40;92.20
51661;DHT22;37741;49.748;8.490;2022-10-16T12:50:30;18.40;91.90
51661;DHT22;37741;49.748;8.490;2022-10-16T12:52:57;18.50;91.80
51661;DHT22;37741;49.748;8.490;2022-10-16T12:55:23;18.50;91.50
51661;DHT22;37741;49.748;8.490;2022-10-16T13:00:54;18.50;91.10
51661;DHT22;37741;49.748;8.490;2022-10-16T13:03:35;18.50;91.10
51661;DHT22;37741;49.748;8.490;2022-10-16T13:06:42;18.60;91.10
51661;DHT22;37741;49.748;8.490;2022-10-16T13:20:35;18.80;91.10
51661;DHT22;37741;49.748;8.490;2022-10-16T13:23:08;18.80;90.90
51661;DHT22;37741;49.748;8.490;2022-10-16T13:25:42;18.90;90.90
51661;DHT22;37741;49.748;8.490;2022-10-16T13:28:11;18.80;90.70
51661;DHT22;37741;49.748;8.490;2022-10-16T13:30:51;18.90;90.60
51661;DHT22;37741;49.748;8.490;2022-10-16T13:33:36;18.90;90.70
51661;DHT22;37741;49.748;8.490;2022-10-16T13:36:03;18.90;90.60
51661;DHT22;37741;49.748;8.490;2022-10-16T13:38:35;18.90;90.40
51661;DHT22;37741;49.748;8.490;2022-10-16T13:41:11;18.80;90.30
51661;DHT22;37741;49.748;8.490;2022-10-16T13:43:50;18.90;90.40
51661;DHT22;37741;49.748;8.490;2022-10-16T13:46:20;18.80;90.40
51661;DHT22;37741;49.748;8.490;2022-10-16T13:49:02;18.90;90.30
51661;DHT22;37741;49.748;8.490;2022-10-16T13:51:30;18.80;90.00
51661;DHT22;37741;49.748;8.490;2022-10-16T13:53:57;18.90;90.50
51661;DHT22;37741;49.748;8.490;2022-10-16T13:56:26;18.80;90.40
51661;DHT22;37741;49.748;8.490;2022-10-16T13:59:04;18.90;90.60
51661;DHT22;37741;49.748;8.490;2022-10-16T14:01:33;18.80;90.00
51661;DHT22;37741;49.748;8.490;2022-10-16T14:04:05;18.90;89.60
51661;DHT22;37741;49.748;8.490;2022-10-16T14:06:31;18.80;90.10
51661;DHT22;37741;49.748;8.490;2022-10-16T14:11:48;18.80;90.10
51661;DHT22;37741;49.748;8.490;2022-10-16T14:14:14;18.80;90.00
51661;DHT22;37741;49.748;8.490;2022-10-16T14:16:42;18.90;89.70
51661;DHT22;37741;49.748;8.490;2022-10-16T14:19:22;18.90;90.10
51661;DHT22;37741;49.748;8.490;2022-10-16T14:21:50;18.80;89.50
51661;DHT22;37741;49.748;8.490;2022-10-16T14:24:26;18.80;89.60
51661;DHT22;37741;49.748;8.490;2022-10-16T14:26:53;18.80;89.50
51661;DHT22;37741;49.748;8.490;2022-10-16T14:29:21;18.80;89.70
51661;DHT22;37741;49.748;8.490;2022-10-16T14:32:03;18.90;90.10
51661;DHT22;37741;49.748;8.490;2022-10-16T14:34:34;18.90;90.10
51661;DHT22;37741;49.748;8.490;2022-10-16T14:37:20;18.90;89.10
51661;DHT22;37741;49.748;8.490;2022-10-16T14:39:51;18.90;89.70
51661;DHT22;37741;49.748;8.490;2022-10-16T14:42:19;18.90;89.60
51661;DHT22;37741;49.748;8.490;2022-10-16T14:44:45;18.90;89.40
51661;DHT22;37741;49.748;8.490;2022-10-16T14:47:17;18.90;89.80
51661;DHT22;37741;49.748;8.490;2022-10-16T14:49:47;18.90;88.50
51661;DHT22;37741;49.748;8.490;2022-10-16T14:52:13;18.90;88.50
51661;DHT22;37741;49.748;8.490;2022-10-16T14:54:40;18.90;88.60
51661;DHT22;37741;49.748;8.490;2022-10-16T14:57:24;18.90;88.30
51661;DHT22;37741;49.748;8.490;2022-10-16T14:59:50;18.90;88.90
51661;DHT22;37741;49.748;8.490;2022-10-16T15:02:35;19.00;89.90
51661;DHT22;37741;49.748;8.490;2022-10-16T15:07:38;19.00;90.60
51661;DHT22;37741;49.748;8.490;2022-10-16T15:10:03;19.00;90.70
51661;DHT22;37741;49.748;8.490;2022-10-16T15:12:29;19.10;90.70
51661;DHT22;37741;49.748;8.490;2022-10-16T15:14:55;19.10;90.70
51661;DHT22;37741;49.748;8.490;2022-10-16T15:17:20;19.10;90.60
51661;DHT22;37741;49.748;8.490;2022-10-16T15:19:46;19.20;90.50
51661;DHT22;37741;49.748;8.490;2022-10-16T15:22:12;19.20;90.20
51661;DHT22;37741;49.748;8.490;2022-10-16T15:24:37;19.20;89.90
51661;DHT22;37741;49.748;8.490;2022-10-16T15:27:03;19.20;90.20
51661;DHT22;37741;49.748;8.490;2022-10-16T15:29:29;19.20;90.20
51661;DHT22;37741;49.748;8.490;2022-10-16T15:32:02;19.20;88.60
51661;DHT22;37741;49.748;8.490;2022-10-16T15:34:27;19.20;89.10
51661;DHT22;37741;49.748;8.490;2022-10-16T15:36:53;19.20;89.40
51661;DHT22;37741;49.748;8.490;2022-10-16T15:39:20;19.20;89.00
51661;DHT22;37741;49.748;8.490;2022-10-16T15:41:47;19.10;89.40
51661;DHT22;37741;49.748;8.490;2022-10-16T15:44:19;19.20;90.00
51661;DHT22;37741;49.748;8.490;2022-10-16T15:50:14;19.20;88.70
51661;DHT22;37741;49.748;8.490;2022-10-16T15:52:41;19.20;88.80
51661;DHT22;37741;49.748;8.490;2022-10-16T15:55:08;19.10;89.50
51661;DHT22;37741;49.748;8.490;2022-10-16T16:00:57;19.10;88.00
51661;DHT22;37741;49.748;8.490;2022-10-16T16:03:25;19.10;88.40
51661;DHT22;37741;49.748;8.490;2022-10-16T16:05:52;19.10;89.00
51661;DHT22;37741;49.748;8.490;2022-10-16T16:08:18;19.10;88.40
51661;DHT22;37741;49.748;8.490;2022-10-16T16:10:44;19.10;88.20
51661;DHT22;37741;49.748;8.490;2022-10-16T16:13:09;19.10;88.10
51661;DHT22;37741;49.748;8.490;2022-10-16T16:15:39;19.10;88.10
51661;DHT22;37741;49.748;8.490;2022-10-16T16:18:06;19.00;88.10
51661;DHT22;37741;49.748;8.490;2022-10-16T16:20:31;19.10;88.80
51661;DHT22;37741;49.748;8.490;2022-10-16T16:22:57;19.10;88.10
51661;DHT22;37741;49.748;8.490;2022-10-16T16:25:23;19.10;88.30
51661;DHT22;37741;49.748;8.490;2022-10-16T16:27:48;19.00;87.50
51661;DHT22;37741;49.748;8.490;2022-10-16T16:30:14;19.00;87.00
51661;DHT22;37741;49.748;8.490;2022-10-16T16:32:40;19.00;86.80
51661;DHT22;37741;49.748;8.490;2022-10-16T16:35:05;19.00;87.80
51661;DHT22;37741;49.748;8.490;2022-10-16T16:37:31;19.00;87.70
51661;DHT22;37741;49.748;8.490;2022-10-16T16:39:57;19.00;87.90
51661;DHT22;37741;49.748;8.490;2022-10-16T16:42:26;19.00;87.60
51661;DHT22;37741;49.748;8.490;2022-10-16T16:44:52;19.00;86.80
51661;DHT22;37741;49.748;8.490;2022-10-16T16:47:18;18.90;87.60
51661;DHT22;37741;49.748;8.490;2022-10-16T16:49:44;18.90;87.10
51661;DHT22;37741;49.748;8.490;2022-10-16T16:52:09;18.90;87.20
51661;DHT22;37741;49.748;8.490;2022-10-16T16:54:35;18.90;86.90
51661;DHT22;37741;49.748;8.490;2022-10-16T16:57:01;18.90;87.10
51661;DHT22;37741;49.748;8.490;2022-10-16T16:59:26;18.90;86.70
51661;DHT22;37741;49.748;8.490;2022-10-16T17:01:52;18.90;86.70
51661;DHT22;37741;49.748;8.490;2022-10-16T17:04:18;18.90;87.20
51661;DHT22;37741;49.748;8.490;2022-10-16T17:06:47;18.80;86.60
51661;DHT22;37741;49.748;8.490;2022-10-16T17:09:16;18.90;87.20
51661;DHT22;37741;49.748;8.490;2022-10-16T17:11:48;18.90;86.80
51661;DHT22;37741;49.748;8.490;2022-10-16T17:14:16;18.80;86.70
51661;DHT22;37741;49.748;8.490;2022-10-16T17:16:42;18.80;87.00
51661;DHT22;37741;49.748;8.490;2022-10-16T17:19:15;18.80;86.80
51661;DHT22;37741;49.748;8.490;2022-10-16T17:21:41;18.80;86.80
51661;DHT22;37741;49.748;8.490;2022-10-16T17:24:08;18.80;86.70
51661;DHT22;37741;49.748;8.490;2022-10-16T17:26:34;18.70;86.80
51661;DHT22;37741;49.748;8.490;2022-10-16T17:29:03;18.70;86.70
51661;DHT22;37741;49.748;8.490;2022-10-16T17:31:34;18.70;86.70